sensor_id;sensor_type;location;lat;lon;timestamp;P1;durP1;ratioP1;P2;durP2;ratioP2
60588;SDS011;46421;48.610;9.334;2023-04-25T00:01:27;3.53;;;1.30;;
60588;SDS011;46421;48.610;9.334;2023-04-25T00:03:53;3.03;;;1.10;;
60588;SDS011;46421;48.610;9.334;2023-04-25T00:06:18;4.20;;;1.20;;
60588;SDS011;46421;48.610;9.334;2023-04-25T00:08:43;4.40;;;1.47;;
60588;SDS011;46421;48.610;9.334;2023-04-25T00:11:08;6.20;;;1.77;;
60588;SDS011;46421;48.610;9.334;2023-04-25T00:13:34;3.50;;;1.13;;
60588;SDS011;46421;48.610;9.334;2023-04-25T00:15:59;3.88;;;1.33;;
60588;SDS011;46421;48.610;9.334;2023-04-25T00:18:25;3.95;;;1.40;;
60588;SDS011;46421;48.610;9.334;2023-04-25T00:20:54;4.60;;;1.40;;
60588;SDS011;46421;48.610;9.334;2023-04-25T00:23:19;2.95;;;1.35;;
60588;SDS011;46421;48.610;9.334;2023-04-25T00:25:44;3.37;;;1.23;;
60588;SDS011;46421;48.610;9.334;2023-04-25T00:28:13;3.28;;;1.33;;
60588;SDS011;46421;48.610;9.334;2023-04-25T00:30:39;5.55;;;1.70;;
60588;SDS011;46421;48.610;9.334;2023-04-25T00:33:05;3.60;;;1.65;;
60588;SDS011;46421;48.610;9.334;2023-04-25T00:35:30;3.80;;;1.63;;
60588;SDS011;46421;48.610;9.334;2023-04-25T00:37:55;6.60;;;1.73;;
60588;SDS011;46421;48.610;9.334;2023-04-25T00:40:21;3.13;;;1.33;;
60588;SDS011;46421;48.610;9.334;2023-04-25T00:42:46;5.10;;;1.63;;
60588;SDS011;46421;48.610;9.334;2023-04-25T00:45:12;4.15;;;1.77;;
60588;SDS011;46421;48.610;9.334;2023-04-25T00:47:38;3.67;;;1.42;;
60588;SDS011;46421;48.610;9.334;2023-04-25T00:50:05;4.75;;;1.63;;
60588;SDS011;46421;48.610;9.334;2023-04-25T00:52:31;3.78;;;1.30;;
60588;SDS011;46421;48.610;9.334;2023-04-25T00:54:56;4.37;;;1.53;;
60588;SDS011;46421;48.610;9.334;2023-04-25T00:57:21;3.20;;;1.43;;
60588;SDS011;46421;48.610;9.334;2023-04-25T00:59:46;3.27;;;1.57;;
60588;SDS011;46421;48.610;9.334;2023-04-25T01:02:12;4.43;;;1.80;;
60588;SDS011;46421;48.610;9.334;2023-04-25T01:04:38;5.05;;;1.48;;
60588;SDS011;46421;48.610;9.334;2023-04-25T01:07:03;3.72;;;1.50;;
60588;SDS011;46421;48.610;9.334;2023-04-25T01:09:29;4.30;;;1.43;;
60588;SDS011;46421;48.610;9.334;2023-04-25T01:11:55;4.20;;;1.50;;
60588;SDS011;46421;48.610;9.334;2023-04-25T01:14:20;6.03;;;1.70;;
60588;SDS011;46421;48.610;9.334;2023-04-25T01:16:45;4.43;;;1.77;;
60588;SDS011;46421;48.610;9.334;2023-04-25T01:19:10;3.67;;;1.40;;
60588;SDS011;46421;48.610;9.334;2023-04-25T01:21:37;4.25;;;1.60;;
60588;SDS011;46421;48.610;9.334;2023-04-25T01:24:02;4.40;;;1.73;;
60588;SDS011;46421;48.610;9.334;2023-04-25T01:26:27;3.90;;;1.50;;
60588;SDS011;46421;48.610;9.334;2023-04-25T01:28:53;4.35;;;1.67;;
60588;SDS011;46421;48.610;9.334;2023-04-25T01:31:18;4.07;;;1.73;;
60588;SDS011;46421;48.610;9.334;2023-04-25T01:33:44;4.63;;;1.50;;
60588;SDS011;46421;48.610;9.334;2023-04-25T01:36:09;4.03;;;1.50;;
60588;SDS011;46421;48.610;9.334;2023-04-25T01:38:35;4.38;;;1.65;;
60588;SDS011;46421;48.610;9.334;2023-04-25T01:41:00;4.37;;;1.57;;
60588;SDS011;46421;48.610;9.334;2023-04-25T01:43:26;4.03;;;1.55;;
60588;SDS011;46421;48.610;9.334;2023-04-25T01:45:51;5.90;;;1.65;;
60588;SDS011;46421;48.610;9.334;2023-04-25T01:48:17;3.75;;;1.60;;
60588;SDS011;46421;48.610;9.334;2023-04-25T01:50:42;2.90;;;1.35;;
60588;SDS011;46421;48.610;9.334;2023-04-25T01:53:08;4.32;;;1.90;;
60588;SDS011;46421;48.610;9.334;2023-04-25T01:55:34;4.75;;;2.03;;
60588;SDS011;46421;48.610;9.334;2023-04-25T01:57:59;5.13;;;1.80;;
60588;SDS011;46421;48.610;9.334;2023-04-25T02:00:26;4.80;;;1.60;;
60588;SDS011;46421;48.610;9.334;2023-04-25T02:02:51;5.20;;;1.40;;
60588;SDS011;46421;48.610;9.334;2023-04-25T02:05:18;3.83;;;1.90;;
60588;SDS011;46421;48.610;9.334;2023-04-25T02:07:43;4.65;;;1.80;;
60588;SDS011;46421;48.610;9.334;2023-04-25T02:10:09;3.77;;;1.80;;
60588;SDS011;46421;48.610;9.334;2023-04-25T02:12:35;4.50;;;1.70;;
60588;SDS011;46421;48.610;9.334;2023-04-25T02:15:00;4.47;;;1.55;;
60588;SDS011;46421;48.610;9.334;2023-04-25T02:17:25;4.83;;;1.70;;
60588;SDS011;46421;48.610;9.334;2023-04-25T02:19:51;5.80;;;2.00;;
60588;SDS011;46421;48.610;9.334;2023-04-25T02:22:16;4.20;;;1.77;;
60588;SDS011;46421;48.610;9.334;2023-04-25T02:24:41;7.77;;;1.47;;
60588;SDS011;46421;48.610;9.334;2023-04-25T02:27:07;4.93;;;1.83;;
60588;SDS011;46421;48.610;9.334;2023-04-25T02:29:33;6.13;;;1.75;;
60588;SDS011;46421;48.610;9.334;2023-04-25T02:31:58;5.23;;;1.73;;
60588;SDS011;46421;48.610;9.334;2023-04-25T02:34:23;6.03;;;1.80;;
60588;SDS011;46421;48.610;9.334;2023-04-25T02:36:49;3.67;;;1.57;;
60588;SDS011;46421;48.610;9.334;2023-04-25T02:39:16;3.88;;;1.70;;
60588;SDS011;46421;48.610;9.334;2023-04-25T02:41:41;5.47;;;2.08;;
60588;SDS011;46421;48.610;9.334;2023-04-25T02:44:06;3.60;;;1.37;;
60588;SDS011;46421;48.610;9.334;2023-04-25T02:46:31;4.40;;;1.87;;
60588;SDS011;46421;48.610;9.334;2023-04-25T02:48:56;5.03;;;1.90;;
60588;SDS011;46421;48.610;9.334;2023-04-25T02:51:22;3.53;;;1.60;;
60588;SDS011;46421;48.610;9.334;2023-04-25T02:53:47;4.13;;;1.77;;
60588;SDS011;46421;48.610;9.334;2023-04-25T02:56:12;4.47;;;1.67;;
60588;SDS011;46421;48.610;9.334;2023-04-25T02:58:37;4.33;;;1.63;;
60588;SDS011;46421;48.610;9.334;2023-04-25T03:01:03;4.03;;;1.80;;
60588;SDS011;46421;48.610;9.334;2023-04-25T03:03:28;4.28;;;1.55;;
60588;SDS011;46421;48.610;9.334;2023-04-25T03:05:53;5.03;;;1.80;;
60588;SDS011;46421;48.610;9.334;2023-04-25T03:08:18;5.13;;;1.87;;
60588;SDS011;46421;48.610;9.334;2023-04-25T03:10:44;6.78;;;1.95;;
60588;SDS011;46421;48.610;9.334;2023-04-25T03:13:09;5.65;;;2.13;;
60588;SDS011;46421;48.610;9.334;2023-04-25T03:15:35;4.28;;;1.90;;
60588;SDS011;46421;48.610;9.334;2023-04-25T03:18:00;6.13;;;2.00;;
60588;SDS011;46421;48.610;9.334;2023-04-25T03:20:25;4.93;;;2.07;;
60588;SDS011;46421;48.610;9.334;2023-04-25T03:22:51;4.13;;;1.63;;
60588;SDS011;46421;48.610;9.334;2023-04-25T03:25:16;4.63;;;1.53;;
60588;SDS011;46421;48.610;9.334;2023-04-25T03:27:41;4.77;;;1.77;;
60588;SDS011;46421;48.610;9.334;2023-04-25T03:30:06;5.77;;;1.70;;
60588;SDS011;46421;48.610;9.334;2023-04-25T03:32:32;5.10;;;1.73;;
60588;SDS011;46421;48.610;9.334;2023-04-25T03:34:58;3.23;;;1.20;;
60588;SDS011;46421;48.610;9.334;2023-04-25T03:37:23;3.30;;;1.30;;
60588;SDS011;46421;48.610;9.334;2023-04-25T03:39:48;3.57;;;1.63;;
60588;SDS011;46421;48.610;9.334;2023-04-25T03:42:13;4.50;;;1.40;;
60588;SDS011;46421;48.610;9.334;2023-04-25T03:44:38;6.23;;;1.63;;
60588;SDS011;46421;48.610;9.334;2023-04-25T03:47:04;4.10;;;1.67;;
60588;SDS011;46421;48.610;9.334;2023-04-25T03:49:29;5.17;;;2.00;;
60588;SDS011;46421;48.610;9.334;2023-04-25T03:51:54;4.00;;;1.67;;
60588;SDS011;46421;48.610;9.334;2023-04-25T03:54:19;4.90;;;1.40;;
60588;SDS011;46421;48.610;9.334;2023-04-25T03:56:45;4.22;;;1.33;;
60588;SDS011;46421;48.610;9.334;2023-04-25T03:59:10;3.70;;;1.40;;
60588;SDS011;46421;48.610;9.334;2023-04-25T04:01:35;5.07;;;1.27;;
60588;SDS011;46421;48.610;9.334;2023-04-25T04:04:01;3.67;;;1.48;;
60588;SDS011;46421;48.610;9.334;2023-04-25T04:06:26;3.60;;;1.40;;
60588;SDS011;46421;48.610;9.334;2023-04-25T04:08:51;4.43;;;1.40;;
60588;SDS011;46421;48.610;9.334;2023-04-25T04:11:16;3.97;;;1.30;;
60588;SDS011;46421;48.610;9.334;2023-04-25T04:13:42;4.57;;;1.30;;
60588;SDS011;46421;48.610;9.334;2023-04-25T04:16:07;4.53;;;1.63;;
60588;SDS011;46421;48.610;9.334;2023-04-25T04:18:32;8.23;;;1.80;;
60588;SDS011;46421;48.610;9.334;2023-04-25T04:20:58;3.67;;;1.40;;
60588;SDS011;46421;48.610;9.334;2023-04-25T04:23:23;4.63;;;1.40;;
60588;SDS011;46421;48.610;9.334;2023-04-25T04:25:49;4.53;;;1.40;;
60588;SDS011;46421;48.610;9.334;2023-04-25T04:28:14;6.47;;;2.10;;
60588;SDS011;46421;48.610;9.334;2023-04-25T04:30:41;4.80;;;1.80;;
60588;SDS011;46421;48.610;9.334;2023-04-25T04:33:07;3.80;;;1.50;;
60588;SDS011;46421;48.610;9.334;2023-04-25T04:35:33;4.63;;;1.63;;
60588;SDS011;46421;48.610;9.334;2023-04-25T04:37:58;2.87;;;1.30;;
60588;SDS011;46421;48.610;9.334;2023-04-25T04:40:23;3.70;;;1.27;;
60588;SDS011;46421;48.610;9.334;2023-04-25T04:42:50;5.85;;;1.70;;
60588;SDS011;46421;48.610;9.334;2023-04-25T04:45:15;4.68;;;1.52;;
60588;SDS011;46421;48.610;9.334;2023-04-25T04:47:41;4.22;;;1.30;;
60588;SDS011;46421;48.610;9.334;2023-04-25T04:50:06;3.97;;;1.40;;
60588;SDS011;46421;48.610;9.334;2023-04-25T04:54:58;3.47;;;1.50;;
60588;SDS011;46421;48.610;9.334;2023-04-25T04:57:23;4.00;;;1.57;;
60588;SDS011;46421;48.610;9.334;2023-04-25T04:59:49;3.07;;;1.23;;
60588;SDS011;46421;48.610;9.334;2023-04-25T05:02:15;4.20;;;1.42;;
60588;SDS011;46421;48.610;9.334;2023-04-25T05:04:40;5.30;;;1.33;;
60588;SDS011;46421;48.610;9.334;2023-04-25T05:07:05;3.00;;;1.30;;
60588;SDS011;46421;48.610;9.334;2023-04-25T05:09:31;3.30;;;1.60;;
60588;SDS011;46421;48.610;9.334;2023-04-25T05:11:56;4.17;;;1.47;;
60588;SDS011;46421;48.610;9.334;2023-04-25T05:14:21;7.05;;;1.67;;
60588;SDS011;46421;48.610;9.334;2023-04-25T05:16:47;3.33;;;1.42;;
60588;SDS011;46421;48.610;9.334;2023-04-25T05:19:13;3.90;;;1.50;;
60588;SDS011;46421;48.610;9.334;2023-04-25T05:21:38;4.73;;;1.50;;
60588;SDS011;46421;48.610;9.334;2023-04-25T05:24:03;6.17;;;1.40;;
60588;SDS011;46421;48.610;9.334;2023-04-25T05:26:29;6.95;;;2.00;;
60588;SDS011;46421;48.610;9.334;2023-04-25T05:28:56;6.40;;;2.15;;
60588;SDS011;46421;48.610;9.334;2023-04-25T05:31:21;4.30;;;1.80;;
60588;SDS011;46421;48.610;9.334;2023-04-25T05:33:47;4.07;;;1.33;;
60588;SDS011;46421;48.610;9.334;2023-04-25T05:36:12;4.83;;;1.60;;
60588;SDS011;46421;48.610;9.334;2023-04-25T05:38:37;5.60;;;2.07;;
60588;SDS011;46421;48.610;9.334;2023-04-25T05:41:02;3.33;;;1.40;;
60588;SDS011;46421;48.610;9.334;2023-04-25T05:43:28;4.23;;;1.50;;
60588;SDS011;46421;48.610;9.334;2023-04-25T05:45:53;4.23;;;1.50;;
60588;SDS011;46421;48.610;9.334;2023-04-25T05:48:18;4.25;;;1.23;;
60588;SDS011;46421;48.610;9.334;2023-04-25T05:50:44;6.33;;;1.63;;
60588;SDS011;46421;48.610;9.334;2023-04-25T05:53:09;3.88;;;1.50;;
60588;SDS011;46421;48.610;9.334;2023-04-25T05:55:34;5.30;;;1.70;;
60588;SDS011;46421;48.610;9.334;2023-04-25T05:58:00;4.00;;;1.40;;
60588;SDS011;46421;48.610;9.334;2023-04-25T06:00:25;5.20;;;1.70;;
60588;SDS011;46421;48.610;9.334;2023-04-25T06:02:50;5.03;;;1.60;;
60588;SDS011;46421;48.610;9.334;2023-04-25T06:05:16;4.60;;;1.80;;
60588;SDS011;46421;48.610;9.334;2023-04-25T06:07:41;3.17;;;1.33;;
60588;SDS011;46421;48.610;9.334;2023-04-25T06:10:06;4.73;;;1.70;;
60588;SDS011;46421;48.610;9.334;2023-04-25T06:12:32;3.83;;;1.70;;
60588;SDS011;46421;48.610;9.334;2023-04-25T06:14:58;3.45;;;1.38;;
60588;SDS011;46421;48.610;9.334;2023-04-25T06:17:23;4.27;;;1.60;;
60588;SDS011;46421;48.610;9.334;2023-04-25T06:19:48;4.97;;;1.50;;
60588;SDS011;46421;48.610;9.334;2023-04-25T06:22:13;4.17;;;1.40;;
60588;SDS011;46421;48.610;9.334;2023-04-25T06:24:39;4.10;;;1.73;;
60588;SDS011;46421;48.610;9.334;2023-04-25T06:27:04;5.17;;;2.00;;
60588;SDS011;46421;48.610;9.334;2023-04-25T06:29:30;3.17;;;1.42;;
60588;SDS011;46421;48.610;9.334;2023-04-25T06:31:55;5.30;;;1.50;;
60588;SDS011;46421;48.610;9.334;2023-04-25T06:34:20;8.17;;;2.60;;
60588;SDS011;46421;48.610;9.334;2023-04-25T06:36:45;3.97;;;1.57;;
60588;SDS011;46421;48.610;9.334;2023-04-25T06:39:10;4.63;;;1.57;;
60588;SDS011;46421;48.610;9.334;2023-04-25T06:41:36;3.95;;;1.50;;
60588;SDS011;46421;48.610;9.334;2023-04-25T06:44:01;6.03;;;1.77;;
60588;SDS011;46421;48.610;9.334;2023-04-25T06:46:26;4.57;;;1.43;;
60588;SDS011;46421;48.610;9.334;2023-04-25T06:48:52;4.63;;;1.63;;
60588;SDS011;46421;48.610;9.334;2023-04-25T06:51:17;4.87;;;1.40;;
60588;SDS011;46421;48.610;9.334;2023-04-25T06:53:42;4.57;;;1.60;;
60588;SDS011;46421;48.610;9.334;2023-04-25T06:56:07;5.10;;;1.90;;
60588;SDS011;46421;48.610;9.334;2023-04-25T06:58:33;4.40;;;1.63;;
60588;SDS011;46421;48.610;9.334;2023-04-25T07:00:58;3.97;;;1.60;;
60588;SDS011;46421;48.610;9.334;2023-04-25T07:03:23;4.20;;;1.70;;
60588;SDS011;46421;48.610;9.334;2023-04-25T07:05:49;4.68;;;1.60;;
60588;SDS011;46421;48.610;9.334;2023-04-25T07:08:14;4.53;;;1.60;;
60588;SDS011;46421;48.610;9.334;2023-04-25T07:10:39;4.90;;;1.60;;
60588;SDS011;46421;48.610;9.334;2023-04-25T07:13:05;4.53;;;1.70;;
60588;SDS011;46421;48.610;9.334;2023-04-25T07:15:30;2.83;;;1.30;;
60588;SDS011;46421;48.610;9.334;2023-04-25T07:17:55;4.10;;;1.63;;
60588;SDS011;46421;48.610;9.334;2023-04-25T07:20:20;3.70;;;1.23;;
60588;SDS011;46421;48.610;9.334;2023-04-25T07:22:46;4.43;;;1.60;;
60588;SDS011;46421;48.610;9.334;2023-04-25T07:25:11;3.67;;;1.50;;
60588;SDS011;46421;48.610;9.334;2023-04-25T07:27:36;3.63;;;1.60;;
60588;SDS011;46421;48.610;9.334;2023-04-25T07:30:01;4.23;;;1.77;;
60588;SDS011;46421;48.610;9.334;2023-04-25T07:32:27;5.05;;;1.77;;
60588;SDS011;46421;48.610;9.334;2023-04-25T07:34:52;4.57;;;1.63;;
60588;SDS011;46421;48.610;9.334;2023-04-25T07:37:18;4.38;;;1.60;;
60588;SDS011;46421;48.610;9.334;2023-04-25T07:39:44;6.57;;;1.80;;
60588;SDS011;46421;48.610;9.334;2023-04-25T07:42:11;4.22;;;1.50;;
60588;SDS011;46421;48.610;9.334;2023-04-25T07:44:36;5.40;;;1.70;;
60588;SDS011;46421;48.610;9.334;2023-04-25T07:47:06;4.43;;;1.67;;
60588;SDS011;46421;48.610;9.334;2023-04-25T07:49:35;6.85;;;1.90;;
60588;SDS011;46421;48.610;9.334;2023-04-25T07:52:00;4.68;;;1.52;;
60588;SDS011;46421;48.610;9.334;2023-04-25T07:54:26;4.00;;;1.35;;
60588;SDS011;46421;48.610;9.334;2023-04-25T07:56:51;4.40;;;1.45;;
60588;SDS011;46421;48.610;9.334;2023-04-25T07:59:16;5.57;;;1.50;;
60588;SDS011;46421;48.610;9.334;2023-04-25T08:01:42;4.55;;;1.88;;
60588;SDS011;46421;48.610;9.334;2023-04-25T08:04:07;3.80;;;1.87;;
60588;SDS011;46421;48.610;9.334;2023-04-25T08:06:32;4.63;;;1.50;;
60588;SDS011;46421;48.610;9.334;2023-04-25T08:08:57;3.92;;;1.58;;
60588;SDS011;46421;48.610;9.334;2023-04-25T08:11:23;5.50;;;1.47;;
60588;SDS011;46421;48.610;9.334;2023-04-25T08:13:48;5.07;;;1.83;;
60588;SDS011;46421;48.610;9.334;2023-04-25T08:16:13;5.03;;;1.92;;
60588;SDS011;46421;48.610;9.334;2023-04-25T08:18:39;4.17;;;1.57;;
60588;SDS011;46421;48.610;9.334;2023-04-25T08:21:04;5.17;;;2.07;;
60588;SDS011;46421;48.610;9.334;2023-04-25T08:23:29;4.00;;;1.70;;
60588;SDS011;46421;48.610;9.334;2023-04-25T08:25:54;5.13;;;1.77;;
60588;SDS011;46421;48.610;9.334;2023-04-25T08:28:20;5.20;;;1.83;;
60588;SDS011;46421;48.610;9.334;2023-04-25T08:30:45;4.83;;;2.10;;
60588;SDS011;46421;48.610;9.334;2023-04-25T08:33:10;4.93;;;1.70;;
60588;SDS011;46421;48.610;9.334;2023-04-25T08:35:36;6.20;;;2.10;;
60588;SDS011;46421;48.610;9.334;2023-04-25T08:38:01;4.60;;;1.90;;
60588;SDS011;46421;48.610;9.334;2023-04-25T08:40:26;4.03;;;1.67;;
60588;SDS011;46421;48.610;9.334;2023-04-25T08:42:53;8.55;;;2.20;;
60588;SDS011;46421;48.610;9.334;2023-04-25T08:45:20;4.15;;;1.55;;
60588;SDS011;46421;48.610;9.334;2023-04-25T08:47:46;4.45;;;1.65;;
60588;SDS011;46421;48.610;9.334;2023-04-25T08:50:13;4.70;;;1.52;;
60588;SDS011;46421;48.610;9.334;2023-04-25T08:52:44;4.97;;;1.90;;
60588;SDS011;46421;48.610;9.334;2023-04-25T08:55:13;7.68;;;1.90;;
60588;SDS011;46421;48.610;9.334;2023-04-25T08:57:39;4.85;;;1.60;;
60588;SDS011;46421;48.610;9.334;2023-04-25T09:00:07;4.65;;;1.73;;
60588;SDS011;46421;48.610;9.334;2023-04-25T09:02:33;3.85;;;1.60;;
60588;SDS011;46421;48.610;9.334;2023-04-25T09:04:58;4.13;;;1.77;;
60588;SDS011;46421;48.610;9.334;2023-04-25T09:07:24;5.38;;;2.00;;
60588;SDS011;46421;48.610;9.334;2023-04-25T09:09:50;5.10;;;1.80;;
60588;SDS011;46421;48.610;9.334;2023-04-25T09:12:17;4.63;;;1.80;;
60588;SDS011;46421;48.610;9.334;2023-04-25T09:14:43;5.60;;;2.20;;
60588;SDS011;46421;48.610;9.334;2023-04-25T09:17:25;4.85;;;1.90;;
60588;SDS011;46421;48.610;9.334;2023-04-25T09:19:50;3.77;;;1.70;;
60588;SDS011;46421;48.610;9.334;2023-04-25T09:22:16;5.28;;;2.65;;
60588;SDS011;46421;48.610;9.334;2023-04-25T09:27:09;4.18;;;1.83;;
60588;SDS011;46421;48.610;9.334;2023-04-25T09:29:36;4.05;;;1.77;;
60588;SDS011;46421;48.610;9.334;2023-04-25T09:34:45;4.45;;;1.75;;
60588;SDS011;46421;48.610;9.334;2023-04-25T09:37:16;5.20;;;2.13;;
60588;SDS011;46421;48.610;9.334;2023-04-25T09:39:42;5.25;;;2.20;;
60588;SDS011;46421;48.610;9.334;2023-04-25T09:42:09;6.53;;;2.20;;
60588;SDS011;46421;48.610;9.334;2023-04-25T09:44:35;5.53;;;2.03;;
60588;SDS011;46421;48.610;9.334;2023-04-25T09:47:00;7.15;;;2.50;;
60588;SDS011;46421;48.610;9.334;2023-04-25T09:49:27;5.07;;;2.17;;
60588;SDS011;46421;48.610;9.334;2023-04-25T09:51:56;5.10;;;1.87;;
60588;SDS011;46421;48.610;9.334;2023-04-25T09:54:22;6.32;;;2.25;;
60588;SDS011;46421;48.610;9.334;2023-04-25T09:56:48;5.00;;;2.08;;
60588;SDS011;46421;48.610;9.334;2023-04-25T09:59:15;6.70;;;2.35;;
60588;SDS011;46421;48.610;9.334;2023-04-25T10:01:43;5.47;;;2.00;;
60588;SDS011;46421;48.610;9.334;2023-04-25T10:04:10;5.40;;;2.40;;
60588;SDS011;46421;48.610;9.334;2023-04-25T10:06:36;7.30;;;2.05;;
60588;SDS011;46421;48.610;9.334;2023-04-25T10:09:02;6.60;;;2.53;;
60588;SDS011;46421;48.610;9.334;2023-04-25T10:11:28;6.03;;;2.35;;
60588;SDS011;46421;48.610;9.334;2023-04-25T10:13:55;5.20;;;2.30;;
60588;SDS011;46421;48.610;9.334;2023-04-25T10:16:20;6.05;;;2.30;;
60588;SDS011;46421;48.610;9.334;2023-04-25T10:18:46;6.20;;;2.40;;
60588;SDS011;46421;48.610;9.334;2023-04-25T10:21:11;5.10;;;2.13;;
60588;SDS011;46421;48.610;9.334;2023-04-25T10:23:37;4.60;;;1.92;;
60588;SDS011;46421;48.610;9.334;2023-04-25T10:26:03;7.20;;;2.63;;
60588;SDS011;46421;48.610;9.334;2023-04-25T10:28:28;5.85;;;2.10;;
60588;SDS011;46421;48.610;9.334;2023-04-25T10:30:57;5.70;;;2.20;;
60588;SDS011;46421;48.610;9.334;2023-04-25T10:33:33;6.05;;;1.80;;
60588;SDS011;46421;48.610;9.334;2023-04-25T10:35:59;5.07;;;1.90;;
60588;SDS011;46421;48.610;9.334;2023-04-25T10:38:33;5.47;;;1.90;;
60588;SDS011;46421;48.610;9.334;2023-04-25T10:41:05;6.13;;;2.10;;
60588;SDS011;46421;48.610;9.334;2023-04-25T10:45:56;5.67;;;1.87;;
60588;SDS011;46421;48.610;9.334;2023-04-25T10:48:25;5.80;;;1.80;;
60588;SDS011;46421;48.610;9.334;2023-04-25T10:50:50;4.25;;;1.75;;
60588;SDS011;46421;48.610;9.334;2023-04-25T10:53:33;2.90;;;1.08;;
60588;SDS011;46421;48.610;9.334;2023-04-25T10:58:23;2.80;;;1.30;;
60588;SDS011;46421;48.610;9.334;2023-04-25T11:00:49;2.67;;;0.90;;
60588;SDS011;46421;48.610;9.334;2023-04-25T11:03:15;2.15;;;0.98;;
60588;SDS011;46421;48.610;9.334;2023-04-25T11:05:41;1.58;;;0.65;;
60588;SDS011;46421;48.610;9.334;2023-04-25T11:08:20;1.33;;;0.60;;
60588;SDS011;46421;48.610;9.334;2023-04-25T11:10:49;1.30;;;0.50;;
60588;SDS011;46421;48.610;9.334;2023-04-25T11:13:14;1.90;;;0.65;;
60588;SDS011;46421;48.610;9.334;2023-04-25T11:15:40;1.17;;;0.50;;
60588;SDS011;46421;48.610;9.334;2023-04-25T11:18:05;1.42;;;0.60;;
60588;SDS011;46421;48.610;9.334;2023-04-25T11:20:31;0.73;;;0.40;;
60588;SDS011;46421;48.610;9.334;2023-04-25T11:22:59;1.43;;;0.50;;
60588;SDS011;46421;48.610;9.334;2023-04-25T11:25:25;1.35;;;0.80;;
60588;SDS011;46421;48.610;9.334;2023-04-25T11:27:51;0.75;;;0.40;;
60588;SDS011;46421;48.610;9.334;2023-04-25T11:30:17;0.90;;;0.35;;
60588;SDS011;46421;48.610;9.334;2023-04-25T11:32:42;1.15;;;0.40;;
60588;SDS011;46421;48.610;9.334;2023-04-25T11:35:08;0.80;;;0.35;;
60588;SDS011;46421;48.610;9.334;2023-04-25T11:37:33;0.88;;;0.40;;
60588;SDS011;46421;48.610;9.334;2023-04-25T11:39:59;1.17;;;0.43;;
60588;SDS011;46421;48.610;9.334;2023-04-25T11:42:24;0.63;;;0.32;;
60588;SDS011;46421;48.610;9.334;2023-04-25T11:44:50;0.20;;;0.20;;
60588;SDS011;46421;48.610;9.334;2023-04-25T11:47:15;0.77;;;0.32;;
60588;SDS011;46421;48.610;9.334;2023-04-25T11:49:41;0.73;;;0.30;;
60588;SDS011;46421;48.610;9.334;2023-04-25T11:52:06;0.68;;;0.40;;
60588;SDS011;46421;48.610;9.334;2023-04-25T11:54:34;1.77;;;0.50;;
60588;SDS011;46421;48.610;9.334;2023-04-25T11:57:00;1.17;;;0.57;;
60588;SDS011;46421;48.610;9.334;2023-04-25T11:59:26;1.67;;;0.70;;
60588;SDS011;46421;48.610;9.334;2023-04-25T12:01:51;1.13;;;0.40;;
60588;SDS011;46421;48.610;9.334;2023-04-25T12:04:23;1.35;;;0.60;;
60588;SDS011;46421;48.610;9.334;2023-04-25T12:06:50;1.35;;;0.45;;
60588;SDS011;46421;48.610;9.334;2023-04-25T12:09:19;0.93;;;0.40;;
60588;SDS011;46421;48.610;9.334;2023-04-25T12:11:47;2.38;;;0.55;;
60588;SDS011;46421;48.610;9.334;2023-04-25T12:14:20;2.05;;;0.55;;
60588;SDS011;46421;48.610;9.334;2023-04-25T12:16:46;1.25;;;0.47;;
60588;SDS011;46421;48.610;9.334;2023-04-25T12:19:15;2.58;;;0.60;;
60588;SDS011;46421;48.610;9.334;2023-04-25T12:21:41;3.65;;;1.30;;
60588;SDS011;46421;48.610;9.334;2023-04-25T12:24:14;5.40;;;1.93;;
60588;SDS011;46421;48.610;9.334;2023-04-25T12:26:46;6.28;;;1.65;;
60588;SDS011;46421;48.610;9.334;2023-04-25T12:29:15;1.83;;;0.70;;
60588;SDS011;46421;48.610;9.334;2023-04-25T12:31:40;2.38;;;0.88;;
60588;SDS011;46421;48.610;9.334;2023-04-25T12:34:06;2.00;;;0.60;;
60588;SDS011;46421;48.610;9.334;2023-04-25T12:36:31;1.20;;;0.50;;
60588;SDS011;46421;48.610;9.334;2023-04-25T12:38:56;1.73;;;0.80;;
60588;SDS011;46421;48.610;9.334;2023-04-25T12:41:22;0.87;;;0.60;;
60588;SDS011;46421;48.610;9.334;2023-04-25T12:43:47;1.55;;;0.70;;
60588;SDS011;46421;48.610;9.334;2023-04-25T12:46:12;2.27;;;0.80;;
60588;SDS011;46421;48.610;9.334;2023-04-25T12:48:38;2.03;;;0.70;;
60588;SDS011;46421;48.610;9.334;2023-04-25T12:51:03;1.50;;;0.57;;
60588;SDS011;46421;48.610;9.334;2023-04-25T12:53:28;2.60;;;0.70;;
60588;SDS011;46421;48.610;9.334;2023-04-25T12:55:53;2.70;;;1.00;;
60588;SDS011;46421;48.610;9.334;2023-04-25T12:58:19;2.27;;;0.70;;
60588;SDS011;46421;48.610;9.334;2023-04-25T13:00:45;1.27;;;0.70;;
60588;SDS011;46421;48.610;9.334;2023-04-25T13:03:10;1.98;;;0.75;;
60588;SDS011;46421;48.610;9.334;2023-04-25T13:05:37;3.38;;;1.00;;
60588;SDS011;46421;48.610;9.334;2023-04-25T13:08:02;1.40;;;0.63;;
60588;SDS011;46421;48.610;9.334;2023-04-25T13:10:27;1.40;;;0.67;;
60588;SDS011;46421;48.610;9.334;2023-04-25T13:12:53;1.90;;;0.87;;
60588;SDS011;46421;48.610;9.334;2023-04-25T13:15:18;3.03;;;1.10;;
60588;SDS011;46421;48.610;9.334;2023-04-25T13:17:43;2.57;;;0.93;;
60588;SDS011;46421;48.610;9.334;2023-04-25T13:20:08;1.87;;;0.90;;
60588;SDS011;46421;48.610;9.334;2023-04-25T13:22:38;2.83;;;1.20;;
60588;SDS011;46421;48.610;9.334;2023-04-25T13:25:04;2.90;;;1.00;;
60588;SDS011;46421;48.610;9.334;2023-04-25T13:27:30;3.30;;;1.25;;
60588;SDS011;46421;48.610;9.334;2023-04-25T13:29:57;3.45;;;1.30;;
60588;SDS011;46421;48.610;9.334;2023-04-25T13:32:23;3.45;;;1.38;;
60588;SDS011;46421;48.610;9.334;2023-04-25T13:34:48;3.87;;;1.27;;
60588;SDS011;46421;48.610;9.334;2023-04-25T13:37:13;4.33;;;1.60;;
60588;SDS011;46421;48.610;9.334;2023-04-25T13:39:38;3.73;;;1.47;;
60588;SDS011;46421;48.610;9.334;2023-04-25T13:42:03;5.47;;;1.70;;
60588;SDS011;46421;48.610;9.334;2023-04-25T13:44:29;3.97;;;1.33;;
60588;SDS011;46421;48.610;9.334;2023-04-25T13:46:54;3.57;;;1.50;;
60588;SDS011;46421;48.610;9.334;2023-04-25T13:49:19;3.40;;;1.20;;
60588;SDS011;46421;48.610;9.334;2023-04-25T13:51:45;4.68;;;1.70;;
60588;SDS011;46421;48.610;9.334;2023-04-25T13:54:10;5.03;;;1.80;;
60588;SDS011;46421;48.610;9.334;2023-04-25T13:56:35;3.90;;;1.43;;
60588;SDS011;46421;48.610;9.334;2023-04-25T13:59:00;4.17;;;1.50;;
60588;SDS011;46421;48.610;9.334;2023-04-25T14:01:26;3.70;;;1.47;;
60588;SDS011;46421;48.610;9.334;2023-04-25T14:06:17;3.25;;;1.20;;
60588;SDS011;46421;48.610;9.334;2023-04-25T14:08:47;2.95;;;1.35;;
60588;SDS011;46421;48.610;9.334;2023-04-25T14:11:13;3.03;;;1.30;;
60588;SDS011;46421;48.610;9.334;2023-04-25T14:13:38;4.60;;;1.70;;
60588;SDS011;46421;48.610;9.334;2023-04-25T14:16:03;4.50;;;1.70;;
60588;SDS011;46421;48.610;9.334;2023-04-25T14:18:28;5.50;;;1.70;;
60588;SDS011;46421;48.610;9.334;2023-04-25T14:20:53;5.13;;;1.90;;
60588;SDS011;46421;48.610;9.334;2023-04-25T14:23:19;4.33;;;1.53;;
60588;SDS011;46421;48.610;9.334;2023-04-25T14:25:44;4.23;;;1.80;;
60588;SDS011;46421;48.610;9.334;2023-04-25T14:28:10;4.63;;;1.90;;
60588;SDS011;46421;48.610;9.334;2023-04-25T14:30:35;4.65;;;1.70;;
60588;SDS011;46421;48.610;9.334;2023-04-25T14:33:00;3.92;;;1.70;;
60588;SDS011;46421;48.610;9.334;2023-04-25T14:35:25;6.77;;;1.97;;
60588;SDS011;46421;48.610;9.334;2023-04-25T14:37:51;4.30;;;1.73;;
60588;SDS011;46421;48.610;9.334;2023-04-25T14:42:43;3.78;;;1.50;;
60588;SDS011;46421;48.610;9.334;2023-04-25T14:45:08;6.07;;;1.92;;
60588;SDS011;46421;48.610;9.334;2023-04-25T14:47:34;4.70;;;1.70;;
60588;SDS011;46421;48.610;9.334;2023-04-25T14:49:59;6.05;;;2.10;;
60588;SDS011;46421;48.610;9.334;2023-04-25T14:52:26;4.55;;;1.70;;
60588;SDS011;46421;48.610;9.334;2023-04-25T14:54:51;4.88;;;1.45;;
60588;SDS011;46421;48.610;9.334;2023-04-25T14:57:17;3.70;;;1.70;;